• Join FlightAware (Why Join?)
  • Login
  • US Flag 
09:06AM EDT


 

Airport Tracker/Info


-or-


 

Live Flight TrackerFlight Track Log ✈ ASH2834 ✈ 03-May-2013 ✈ KLGB - KPHX

Flight Track Log - Related Links

Times and Time Zones

All times are in EDT time to prevent confusion due to time zone crossing. See the ASH2834 flight status page for this flight to view local times or setup timezone preferences in your user account.

Time Position Orientation Groundspeed Altitude Reporting Facility
EDT Latitude Longitude Course Direction KTS MPH feet Rate Location/Type
10:37PM 33.8333 -118.1833 68° East 165 190 1,800  Level Southern California TRACON
10:37PM 33.8344 -118.2036 274° West 198 228 2,800 2,700 Climbing Los Angeles Center
10:38PM 33.7783 -118.2242 197° South 210 242 5,900 3,000 Climbing Los Angeles Center
10:39PM 33.7164 -118.2442 195° South 222 255 9,000 2,520 Climbing Los Angeles Center
10:40PM 33.5834 -117.9675 90° East  Level FlightAware Approximate
10:40PM 33.6506 -118.2336 172° South 256 295 11,200  Level Los Angeles Center
10:41PM 33.5833 -117.8273 90° East  Level FlightAware Approximate
10:41PM 33.6097 -118.1481 120° Southeast 322 371 12,500  Level Los Angeles Center
10:42PM 33.5976 -117.6905 68° East  Level FlightAware Approximate
10:42PM 33.6142 -118.0072 88° East 351 404 15,700  Level Los Angeles Center
10:43PM 33.6156 -117.8847 89° East 368 423 18,300 2,520 Climbing Los Angeles Center
10:44PM 33.6175 -117.7283 89° East 389 448 20,900 2,100 Climbing Los Angeles Center
10:45PM 33.6194 -117.5939 89° East 403 464 22,700 1,500 Climbing Los Angeles Center
10:47PM 33.6214 -117.4478 89° East 432 497 24,000 1,560 Climbing Los Angeles Center
10:48PM 33.6228 -117.2975 89° East 449 517 26,000 1,920 Climbing Los Angeles Center
10:49PM 33.6239 -117.1464 89° East 454 522 28,000 1,920 Climbing Los Angeles Center
10:50PM 33.6247 -116.9953 90° East 454 522 30,000 1,440 Climbing Los Angeles Center
10:51PM 33.6253 -116.8183 90° East 455 524 31,000 480 Climbing Los Angeles Center
10:52PM 33.6272 -116.6897 89° East 474 545 31,000  Level Los Angeles Center
10:53PM 33.6264 -116.4939 90° East 488 562 31,000  Level Los Angeles Center
10:54PM 33.6275 -116.3225 90° East 503 579 31,000  Level Los Angeles Center
10:55PM 33.6183 -116.1494 94° East 514 592 31,000  Level Los Angeles Center
10:56PM 33.6072 -115.9772 94° East 515 593 31,000  Level Los Angeles Center
10:57PM 33.5939 -115.8064 95° East 512 589 31,000  Level Los Angeles Center
10:58PM 33.5831 -115.6361 94° East 513 590 31,000  Level Los Angeles Center
10:59PM 33.5708 -115.4681 95° East 509 586 31,000  Level Los Angeles Center
11:00PM 33.5567 -115.2669 95° East 505 581 31,000  Level Los Angeles Center
11:01PM 33.5431 -115.0992 96° East 505 581 31,000  Level Los Angeles Center
11:02PM 33.5303 -114.9314 95° East 506 582 31,000 -540 Level Los Angeles Center
11:03PM 33.5153 -114.7431 95° East 469 540 29,900 -1,140 Descending Los Angeles Center
11:04PM 33.5044 -114.5992 95° East 468 539 28,900 -1,080 Descending Albuquerque Center
11:05PM 33.4914 -114.4475 96° East 460 529 27,900 -1,020 Descending Albuquerque Center
11:06PM 33.4781 -114.2914 96° East 463 533 26,900 -1,020 Descending Albuquerque Center
11:07PM 33.4661 -114.1372 95° East 465 535 25,900 -960 Descending Albuquerque Center
11:08PM 33.4461 -113.9883 99° East 461 531 25,000 -840 Descending Albuquerque Center
11:09PM 33.4167 -113.8461 104° East 451 519 24,200 -1,200 Descending Albuquerque Center
11:10PM 33.3883 -113.7086 104° East 434 499 22,600 -1,560 Descending Albuquerque Center
11:11PM 33.3617 -113.5783 104° East 411 473 21,100 -1,500 Descending Albuquerque Center
11:12PM 33.3342 -113.4483 104° East 404 465 19,600 -1,620 Descending Albuquerque Center
11:13PM 33.3092 -113.3206 103° East 398 458 17,900 -1,560 Descending Albuquerque Center
11:14PM 33.2825 -113.1950 104° East 392 451 16,500 -1,440 Descending Albuquerque Center
11:15PM 33.2747 -113.0525 94° East 359 413 15,000 -1,380 Descending Albuquerque Center
11:16PM 33.2778 -112.9392 88° East 345 397 13,700 -1,380 Descending Albuquerque Center
11:17PM 33.2806 -112.8319 88° East 331 381 12,200 -1,500 Descending Albuquerque Center
11:18PM 33.3100 -112.7411 69° East 301 346 10,700 -1,500 Descending Albuquerque Center
11:19PM 33.3417 -112.6569 66° East 284 327 9,200 -1,320 Descending Albuquerque Center
11:20PM 33.3692 -112.5786 67° East 275 316 8,100 -780 Descending Albuquerque Center
11:21PM 33.3950 -112.4947 70° East 268 308 7,700 -660 Descending Albuquerque Center
11:22PM 33.4175 -112.4217 70° East 239 275 6,800 -840 Descending Albuquerque Center
11:23PM 33.4425 -112.3350 71° East 230 265 6,000 -1,020 Descending Albuquerque Center
11:24PM 33.4411 -112.2572 91° East 237 273 4,800 -1,140 Descending Albuquerque Center
11:25PM 33.4408 -112.1836 90° East 224 258 3,700 -1,080 Descending Albuquerque Center
11:26PM 33.4403 -112.1244 91° East 184 212 2,700 -1,020 Descending Albuquerque Center